Fayetteville, WV

10:16 PM EST on November 20, 2014 (GMT -0500)
F.I.T. - Oyler Ave. | Change Station
CLOSE
Current Station
Personal Weather Station
Location: Oak Hill, WV
Elevation: 1988 ft
Nearby Weather Stations

Elev 1988 ft 37.99 °N, 81.15 °W | Updated 13 seconds ago

Clear
Clear
27.0 °F
Feels Like 27 °F
N
0.0
Wind Variable Wind from NW
Gusts 0.0 mph

Today
High -- | Low -- °F
--% Chance of Precip.
Yesterday
High -- | Low -- °F
Precip. -- in
7:10 AM 5:09 PM
Waning Crescent, 2% visible
Pressure 30.18 in
Visibility 10.0 miles
Clouds Clear
Windchill 27 °F
Dew Point 18 °F
Humidity 67%
Rainfall 0.04 in
Snow Depth Not available.
UV 0 out of 12
Pollen .10 out of 12
Air Quality Not available.
Flu Activity Not available.
METAR KBKW 210251Z AUTO 29008KT 10SM CLR M02/M09 A3010 RMK AO2 SLP219 T10221094 53018

More Conditions Fewer Conditions

Pressure 30.18 in
Visibility 10.0 miles
Clouds Clear
Windchill 27 °F
Dew Point 18 °F
Humidity 67%
Rainfall 0.04 in
Snow Depth Not available.
UV 0 out of 12
Pollen .10 out of 12
Air Quality Not available.
Flu Activity Not available.
METAR KBKW 210251Z AUTO 29008KT 10SM CLR M02/M09 A3010 RMK AO2 SLP219 T10221094 53018

More Conditions Fewer Conditions

10-Day Weather Forecast

Almanac

Astronomy

Nov. 20, 2014 Rise Set
Actual Time
Civil Twilight
Nautical Twilight
Astronomical Twilight
Moon
Length of Visible Light
Length of Day
Tomorrow will be .
, % of the Moon is Illuminated

Today's Extremes

State Highs State Lows

Community

WunderPhotos

Upload Photos

1,772,610 photos uploaded!

WunderBlogs® & News

Nearby

Air Quality

  Air Quality AQ Index Pollutant
Not available.

Snow Depth

Station Depth Elevation

Earthquake Activity

City Distance Mag. Time & Date
Minimum magnitude displayed is 2.5.

Coastal Water Temperatures

Place Temperature

Nearby Weather Stations